createdAt,value
2022-09-28T00:02:16.318Z,3.40
2022-09-28T00:04:47.481Z,3.28
2022-09-28T00:07:16.741Z,2.85
2022-09-28T00:09:45.977Z,3.28
2022-09-28T00:12:15.667Z,5.22
2022-09-28T00:14:45.157Z,4.20
2022-09-28T00:17:16.046Z,4.00
2022-09-28T00:19:47.486Z,3.92
2022-09-28T00:22:17.080Z,3.67
2022-09-28T00:24:46.902Z,3.65
2022-09-28T00:27:16.275Z,5.40
2022-09-28T00:29:45.517Z,3.58
2022-09-28T00:32:17.221Z,4.57
2022-09-28T00:34:49.149Z,4.65
2022-09-28T00:37:21.216Z,4.78
2022-09-28T00:39:50.966Z,7.28
2022-09-28T00:42:23.669Z,8.10
2022-09-28T00:44:54.162Z,4.15
2022-09-28T00:47:49.775Z,4.50
2022-09-28T00:50:25.477Z,6.43
2022-09-28T00:53:00.419Z,6.50
2022-09-28T00:55:37.318Z,5.13
2022-09-28T00:58:12.130Z,4.93
2022-09-28T01:00:42.185Z,4.28
2022-09-28T01:03:13.922Z,5.82
2022-09-28T01:05:46.554Z,7.75
2022-09-28T01:08:17.766Z,4.93
2022-09-28T01:10:47.016Z,4.03
2022-09-28T01:13:18.150Z,5.53
2022-09-28T01:16:01.069Z,4.72
2022-09-28T01:18:37.140Z,5.05
2022-09-28T01:21:16.511Z,7.78
2022-09-28T01:24:13.170Z,6.38
2022-09-28T01:26:50.946Z,5.22
2022-09-28T01:29:29.454Z,4.95
2022-09-28T01:32:07.104Z,5.75
2022-09-28T01:34:41.158Z,8.13
2022-09-28T01:37:14.095Z,6.40
2022-09-28T01:39:47.737Z,6.88
2022-09-28T01:42:23.501Z,5.97
2022-09-28T01:44:55.886Z,6.15
2022-09-28T01:47:28.679Z,4.43
2022-09-28T01:50:06.572Z,5.70
2022-09-28T01:52:41.271Z,4.40
2022-09-28T01:55:14.723Z,8.55
2022-09-28T01:57:50.506Z,5.50
2022-09-28T02:00:21.515Z,3.92
2022-09-28T02:02:57.055Z,5.10
2022-09-28T02:05:32.562Z,5.85
2022-09-28T02:08:07.018Z,6.18
2022-09-28T02:10:42.877Z,4.13
2022-09-28T02:13:17.916Z,4.95
2022-09-28T02:15:53.047Z,5.25
2022-09-28T02:18:22.409Z,7.85
2022-09-28T02:20:58.917Z,3.97
2022-09-28T02:23:31.375Z,5.85
2022-09-28T02:26:05.681Z,3.85
2022-09-28T02:28:36.546Z,4.97
2022-09-28T02:31:06.638Z,6.43
2022-09-28T02:33:40.217Z,4.95
2022-09-28T02:36:10.137Z,5.25
2022-09-28T02:38:39.721Z,8.88
2022-09-28T02:41:21.873Z,3.97
2022-09-28T02:44:05.028Z,6.50
2022-09-28T02:46:43.742Z,6.88
2022-09-28T02:49:23.447Z,4.45
2022-09-28T02:52:10.585Z,7.32
2022-09-28T02:55:02.802Z,5.15
2022-09-28T02:57:42.393Z,4.43
2022-09-28T03:00:18.984Z,5.30
2022-09-28T03:02:59.113Z,6.03
2022-09-28T03:05:44.045Z,5.82
2022-09-28T03:08:22.814Z,5.68
2022-09-28T03:10:58.150Z,5.20
2022-09-28T03:13:28.754Z,5.30
2022-09-28T03:16:11.713Z,7.07
2022-09-28T03:18:41.491Z,6.10
2022-09-28T03:21:12.741Z,7.47
2022-09-28T03:26:13.568Z,7.78
2022-09-28T03:28:42.975Z,10.30
2022-09-28T03:31:14.270Z,9.65
2022-09-28T03:33:43.561Z,9.48
2022-09-28T03:36:15.033Z,12.13
2022-09-28T03:38:45.433Z,12.65
2022-09-28T03:41:15.063Z,9.35
2022-09-28T03:43:44.300Z,11.25
2022-09-28T03:46:15.831Z,12.02
2022-09-28T03:51:15.263Z,15.60
2022-09-28T03:53:44.839Z,11.98
2022-09-28T03:56:16.317Z,15.20
2022-09-28T03:58:46.281Z,22.17
2022-09-28T04:01:18.230Z,14.73
2022-09-28T04:03:48.463Z,14.38
2022-09-28T04:06:17.714Z,14.05
2022-09-28T04:08:46.961Z,14.88
2022-09-28T04:11:16.836Z,13.93
2022-09-28T04:13:49.328Z,16.77
2022-09-28T04:16:20.476Z,15.60
2022-09-28T22:04:28.409Z,15.77
2022-09-28T22:06:58.697Z,18.20
2022-09-28T22:09:28.061Z,16.42
2022-09-28T22:11:57.778Z,17.70
2022-09-28T22:14:28.463Z,19.02
2022-09-28T22:16:57.865Z,17.13
2022-09-28T22:19:29.252Z,14.77
2022-09-28T22:21:58.500Z,17.65
2022-09-28T22:24:27.780Z,15.73
2022-09-28T22:26:57.305Z,18.23
2022-09-28T22:29:26.769Z,23.55
2022-09-28T22:32:02.313Z,19.70
2022-09-28T22:34:34.137Z,17.67
2022-09-28T22:37:04.637Z,17.75
2022-09-28T22:39:37.697Z,17.60
2022-09-28T22:42:07.354Z,18.40
2022-09-28T22:44:38.313Z,18.60
2022-09-28T22:47:07.805Z,16.48
2022-09-28T22:49:38.526Z,17.83
2022-09-28T22:52:08.694Z,17.88
2022-09-28T22:54:39.020Z,23.77
2022-09-28T22:57:08.536Z,17.10
2022-09-28T22:59:38.084Z,15.90
2022-09-28T23:02:07.403Z,19.20
2022-09-28T23:04:39.123Z,16.27
2022-09-28T23:09:38.121Z,12.30
2022-09-28T23:12:07.650Z,12.07
2022-09-28T23:14:36.915Z,12.82
2022-09-28T23:17:06.938Z,9.70
2022-09-28T23:19:37.990Z,11.10
2022-09-28T23:22:08.132Z,13.57
2022-09-28T23:24:37.522Z,13.30
2022-09-28T23:27:07.461Z,8.32
2022-09-28T23:29:37.153Z,7.78
2022-09-28T23:32:06.438Z,12.55
2022-09-28T23:34:35.699Z,10.27
2022-09-28T23:37:06.721Z,10.02
2022-09-28T23:39:36.225Z,8.73
2022-09-28T23:42:06.352Z,9.67
2022-09-28T23:44:36.087Z,9.70
2022-09-28T23:47:05.395Z,7.70
2022-09-28T23:49:35.356Z,9.27
2022-09-28T23:52:06.749Z,9.82
2022-09-28T23:54:36.878Z,9.68
2022-09-28T23:57:06.206Z,9.40
2022-09-28T23:59:35.625Z,9.70
